sensor_id;sensor_type;location;lat;lon;timestamp;pressure;altitude;pressure_sealevel;temperature;humidity
21781;BME280;52576;53.614;9.894;2023-04-28T00:01:39;101639.84;;;4.96;78.03
21781;BME280;52576;53.614;9.894;2023-04-28T00:03:44;101645.06;;;4.96;77.90
21781;BME280;52576;53.614;9.894;2023-04-28T00:05:48;101641.66;;;4.94;78.05
21781;BME280;52576;53.614;9.894;2023-04-28T00:07:51;101637.38;;;4.93;77.89
21781;BME280;52576;53.614;9.894;2023-04-28T00:09:55;101637.41;;;4.92;77.89
21781;BME280;52576;53.614;9.894;2023-04-28T00:11:58;101640.91;;;4.91;78.05
21781;BME280;52576;53.614;9.894;2023-04-28T00:14:03;101645.25;;;4.90;78.03
21781;BME280;52576;53.614;9.894;2023-04-28T00:16:07;101642.69;;;4.89;78.29
21781;BME280;52576;53.614;9.894;2023-04-28T00:18:10;101638.41;;;4.88;78.24
21781;BME280;52576;53.614;9.894;2023-04-28T00:20:15;101622.84;;;4.86;78.18
21781;BME280;52576;53.614;9.894;2023-04-28T00:22:19;101622.09;;;4.83;78.27
21781;BME280;52576;53.614;9.894;2023-04-28T00:24:22;101624.72;;;4.81;77.94
21781;BME280;52576;53.614;9.894;2023-04-28T00:26:26;101626.53;;;4.79;78.15
21781;BME280;52576;53.614;9.894;2023-04-28T00:28:29;101618.81;;;4.76;78.03
21781;BME280;52576;53.614;9.894;2023-04-28T00:30:36;101623.19;;;4.74;78.36
21781;BME280;52576;53.614;9.894;2023-04-28T00:32:39;101622.41;;;4.72;78.23
21781;BME280;52576;53.614;9.894;2023-04-28T00:34:43;101617.28;;;4.69;78.55
21781;BME280;52576;53.614;9.894;2023-04-28T00:36:47;101607.06;;;4.64;78.54
21781;BME280;52576;53.614;9.894;2023-04-28T00:38:51;101610.63;;;4.60;78.84
21781;BME280;52576;53.614;9.894;2023-04-28T00:40:54;101608.16;;;4.56;78.76
21781;BME280;52576;53.614;9.894;2023-04-28T00:42:58;101609.13;;;4.52;78.82
21781;BME280;52576;53.614;9.894;2023-04-28T00:45:01;101598.03;;;4.47;78.91
21781;BME280;52576;53.614;9.894;2023-04-28T00:47:07;101604.16;;;4.44;79.03
21781;BME280;52576;53.614;9.894;2023-04-28T00:49:11;101603.50;;;4.37;78.94
21781;BME280;52576;53.614;9.894;2023-04-28T00:51:16;101601.88;;;4.33;79.24
21781;BME280;52576;53.614;9.894;2023-04-28T00:53:21;101588.19;;;4.28;79.33
21781;BME280;52576;53.614;9.894;2023-04-28T00:55:25;101595.22;;;4.23;79.38
21781;BME280;52576;53.614;9.894;2023-04-28T00:57:30;101592.75;;;4.19;79.40
21781;BME280;52576;53.614;9.894;2023-04-28T00:59:34;101585.13;;;4.14;79.78
21781;BME280;52576;53.614;9.894;2023-04-28T01:01:39;101591.28;;;4.10;79.71
21781;BME280;52576;53.614;9.894;2023-04-28T01:03:42;101592.25;;;4.06;79.51
21781;BME280;52576;53.614;9.894;2023-04-28T01:05:47;101594.09;;;4.01;79.84
21781;BME280;52576;53.614;9.894;2023-04-28T01:07:51;101593.31;;;3.99;79.95
21781;BME280;52576;53.614;9.894;2023-04-28T01:09:56;101593.38;;;3.96;80.02
21781;BME280;52576;53.614;9.894;2023-04-28T01:12:05;101594.34;;;3.92;80.07
21781;BME280;52576;53.614;9.894;2023-04-28T01:14:29;101590.13;;;3.89;80.20
21781;BME280;52576;53.614;9.894;2023-04-28T01:16:32;101589.34;;;3.86;80.45
21781;BME280;52576;53.614;9.894;2023-04-28T01:18:36;101588.53;;;3.84;80.57
21781;BME280;52576;53.614;9.894;2023-04-28T01:20:41;101588.63;;;3.79;80.58
21781;BME280;52576;53.614;9.894;2023-04-28T01:22:44;101579.19;;;3.77;80.92
21781;BME280;52576;53.614;9.894;2023-04-28T01:24:49;101585.34;;;3.72;80.69
21781;BME280;52576;53.614;9.894;2023-04-28T01:26:53;101579.34;;;3.70;80.84
21781;BME280;52576;53.614;9.894;2023-04-28T01:28:56;101581.97;;;3.69;81.00
21781;BME280;52576;53.614;9.894;2023-04-28T01:31:00;101574.31;;;3.64;80.82
21781;BME280;52576;53.614;9.894;2023-04-28T01:33:03;101577.81;;;3.63;80.86
21781;BME280;52576;53.614;9.894;2023-04-28T01:35:07;101569.22;;;3.61;81.11
21781;BME280;52576;53.614;9.894;2023-04-28T01:37:11;101571.00;;;3.59;81.28
21781;BME280;52576;53.614;9.894;2023-04-28T01:39:14;101575.38;;;3.57;81.26
21781;BME280;52576;53.614;9.894;2023-04-28T01:41:19;101576.25;;;3.56;81.21
21781;BME280;52576;53.614;9.894;2023-04-28T01:43:23;101579.75;;;3.55;81.30
21781;BME280;52576;53.614;9.894;2023-04-28T01:45:26;101578.06;;;3.53;81.24
21781;BME280;52576;53.614;9.894;2023-04-28T01:47:30;101571.22;;;3.50;81.49
21781;BME280;52576;53.614;9.894;2023-04-28T01:49:33;101568.66;;;3.49;81.38
21781;BME280;52576;53.614;9.894;2023-04-28T01:51:37;101566.13;;;3.47;81.33
21781;BME280;52576;53.614;9.894;2023-04-28T01:53:42;101573.06;;;3.45;81.42
21781;BME280;52576;53.614;9.894;2023-04-28T01:55:46;101564.47;;;3.43;81.70
21781;BME280;52576;53.614;9.894;2023-04-28T01:57:52;101567.09;;;3.41;81.65
21781;BME280;52576;53.614;9.894;2023-04-28T01:59:56;101572.38;;;3.38;81.69
21781;BME280;52576;53.614;9.894;2023-04-28T02:02:01;101564.66;;;3.37;81.78
21781;BME280;52576;53.614;9.894;2023-04-28T02:04:04;101557.78;;;3.36;81.68
21781;BME280;52576;53.614;9.894;2023-04-28T02:06:10;101555.22;;;3.34;81.57
21781;BME280;52576;53.614;9.894;2023-04-28T02:08:14;101552.66;;;3.33;81.81
21781;BME280;52576;53.614;9.894;2023-04-28T02:10:20;101552.72;;;3.30;81.80
21781;BME280;52576;53.614;9.894;2023-04-28T02:12:24;101551.03;;;3.29;81.82
21781;BME280;52576;53.614;9.894;2023-04-28T02:14:29;101543.28;;;3.27;81.82
21781;BME280;52576;53.614;9.894;2023-04-28T02:16:33;101547.63;;;3.27;81.92
21781;BME280;52576;53.614;9.894;2023-04-28T02:18:36;101545.91;;;3.26;81.71
21781;BME280;52576;53.614;9.894;2023-04-28T02:20:40;101546.81;;;3.25;82.00
21781;BME280;52576;53.614;9.894;2023-04-28T02:22:44;101549.44;;;3.23;81.90
21781;BME280;52576;53.614;9.894;2023-04-28T02:24:47;101536.50;;;3.22;81.92
21781;BME280;52576;53.614;9.894;2023-04-28T02:26:51;101544.28;;;3.22;81.94
21781;BME280;52576;53.614;9.894;2023-04-28T02:28:54;101542.56;;;3.21;81.79
21781;BME280;52576;53.614;9.894;2023-04-28T02:31:05;101541.72;;;3.20;82.03
21781;BME280;52576;53.614;9.894;2023-04-28T02:33:09;101539.13;;;3.20;81.82
21781;BME280;52576;53.614;9.894;2023-04-28T02:35:13;101539.16;;;3.19;81.82
21781;BME280;52576;53.614;9.894;2023-04-28T02:37:17;101534.88;;;3.18;81.71
21781;BME280;52576;53.614;9.894;2023-04-28T02:39:23;101535.75;;;3.17;81.98
21781;BME280;52576;53.614;9.894;2023-04-28T02:41:30;101526.31;;;3.14;81.92
21781;BME280;52576;53.614;9.894;2023-04-28T02:43:36;101528.06;;;3.14;81.80
21781;BME280;52576;53.614;9.894;2023-04-28T02:45:40;101522.09;;;3.12;81.88
21781;BME280;52576;53.614;9.894;2023-04-28T02:47:44;101517.00;;;3.09;81.88
21781;BME280;52576;53.614;9.894;2023-04-28T02:49:48;101508.41;;;3.06;81.85
21781;BME280;52576;53.614;9.894;2023-04-28T02:51:51;101515.34;;;3.04;81.85
21781;BME280;52576;53.614;9.894;2023-04-28T02:53:55;101517.97;;;3.03;81.83
21781;BME280;52576;53.614;9.894;2023-04-28T02:55:58;101506.78;;;3.02;81.81
21781;BME280;52576;53.614;9.894;2023-04-28T02:58:03;101499.06;;;2.99;82.08
21781;BME280;52576;53.614;9.894;2023-04-28T03:00:09;101507.72;;;2.98;82.03
21781;BME280;52576;53.614;9.894;2023-04-28T03:02:19;101501.72;;;2.96;81.87
21781;BME280;52576;53.614;9.894;2023-04-28T03:04:25;101499.22;;;2.93;82.07
21781;BME280;52576;53.614;9.894;2023-04-28T03:06:29;101494.06;;;2.92;82.20
21781;BME280;52576;53.614;9.894;2023-04-28T03:08:34;101487.22;;;2.89;82.08
21781;BME280;52576;53.614;9.894;2023-04-28T03:10:37;101486.41;;;2.87;82.23
21781;BME280;52576;53.614;9.894;2023-04-28T03:12:40;101483.03;;;2.85;82.20
21781;BME280;52576;53.614;9.894;2023-04-28T03:14:44;101483.06;;;2.84;82.25
21781;BME280;52576;53.614;9.894;2023-04-28T03:16:47;101477.91;;;2.82;82.27
21781;BME280;52576;53.614;9.894;2023-04-28T03:18:51;101474.50;;;2.80;82.24
21781;BME280;52576;53.614;9.894;2023-04-28T03:20:56;101478.00;;;2.79;82.42
21781;BME280;52576;53.614;9.894;2023-04-28T03:23:00;101474.56;;;2.77;82.35
21781;BME280;52576;53.614;9.894;2023-04-28T03:25:05;101476.34;;;2.75;82.32
21781;BME280;52576;53.614;9.894;2023-04-28T03:27:15;101468.63;;;2.73;82.37
21781;BME280;52576;53.614;9.894;2023-04-28T03:29:18;101466.06;;;2.72;82.54
21781;BME280;52576;53.614;9.894;2023-04-28T03:31:22;101458.34;;;2.70;82.55
21781;BME280;52576;53.614;9.894;2023-04-28T03:33:25;101454.00;;;2.71;82.52
21781;BME280;52576;53.614;9.894;2023-04-28T03:35:29;101462.66;;;2.70;82.56
21781;BME280;52576;53.614;9.894;2023-04-28T03:37:34;101461.81;;;2.69;82.43
21781;BME280;52576;53.614;9.894;2023-04-28T03:39:38;101450.59;;;2.69;82.49
21781;BME280;52576;53.614;9.894;2023-04-28T03:41:41;101458.38;;;2.69;82.59
21781;BME280;52576;53.614;9.894;2023-04-28T03:44:04;101455.78;;;2.69;82.61
21781;BME280;52576;53.614;9.894;2023-04-28T03:46:15;101455.78;;;2.69;82.61
21781;BME280;52576;53.614;9.894;2023-04-28T03:48:19;101448.00;;;2.69;82.42
21781;BME280;52576;53.614;9.894;2023-04-28T03:50:22;101453.19;;;2.69;82.60
21781;BME280;52576;53.614;9.894;2023-04-28T03:52:28;101445.38;;;2.70;82.68
21781;BME280;52576;53.614;9.894;2023-04-28T03:54:33;101441.09;;;2.69;82.51
21781;BME280;52576;53.614;9.894;2023-04-28T03:56:37;101439.38;;;2.70;82.50
21781;BME280;52576;53.614;9.894;2023-04-28T03:58:40;101444.53;;;2.70;82.57
21781;BME280;52576;53.614;9.894;2023-04-28T04:00:44;101433.31;;;2.71;82.45
21781;BME280;52576;53.614;9.894;2023-04-28T04:02:47;101436.78;;;2.70;82.35
21781;BME280;52576;53.614;9.894;2023-04-28T04:04:51;101427.28;;;2.70;82.56
21781;BME280;52576;53.614;9.894;2023-04-28T04:06:55;101422.06;;;2.72;82.28
21781;BME280;52576;53.614;9.894;2023-04-28T04:08:58;101426.34;;;2.73;82.54
21781;BME280;52576;53.614;9.894;2023-04-28T04:11:04;101424.63;;;2.73;82.54
21781;BME280;52576;53.614;9.894;2023-04-28T04:13:07;101432.31;;;2.77;82.48
21781;BME280;52576;53.614;9.894;2023-04-28T04:15:11;101420.22;;;2.77;82.34
21781;BME280;52576;53.614;9.894;2023-04-28T04:17:17;101421.03;;;2.79;82.29
21781;BME280;52576;53.614;9.894;2023-04-28T04:19:20;101419.25;;;2.81;82.28
21781;BME280;52576;53.614;9.894;2023-04-28T04:21:28;101414.03;;;2.83;82.33
21781;BME280;52576;53.614;9.894;2023-04-28T04:23:32;101408.84;;;2.84;82.15
21781;BME280;52576;53.614;9.894;2023-04-28T04:25:36;101414.78;;;2.86;82.20
21781;BME280;52576;53.614;9.894;2023-04-28T04:27:41;101412.13;;;2.89;82.20
21781;BME280;52576;53.614;9.894;2023-04-28T04:29:45;101405.19;;;2.91;82.08
21781;BME280;52576;53.614;9.894;2023-04-28T04:31:49;101409.44;;;2.94;82.24
21781;BME280;52576;53.614;9.894;2023-04-28T04:33:52;101405.03;;;2.97;82.09
21781;BME280;52576;53.614;9.894;2023-04-28T04:35:56;101401.47;;;3.01;82.19
21781;BME280;52576;53.614;9.894;2023-04-28T04:37:59;101405.69;;;3.05;82.13
21781;BME280;52576;53.614;9.894;2023-04-28T04:40:05;101402.16;;;3.10;81.91
21781;BME280;52576;53.614;9.894;2023-04-28T04:42:16;101396.81;;;3.14;82.01
21781;BME280;52576;53.614;9.894;2023-04-28T04:44:42;101395.78;;;3.21;81.88
21781;BME280;52576;53.614;9.894;2023-04-28T04:46:54;101390.47;;;3.26;81.78
21781;BME280;52576;53.614;9.894;2023-04-28T04:48:58;101393.81;;;3.31;81.55
21781;BME280;52576;53.614;9.894;2023-04-28T04:51:01;101391.94;;;3.36;81.44
21781;BME280;52576;53.614;9.894;2023-04-28T04:53:05;101396.94;;;3.42;81.36
21781;BME280;52576;53.614;9.894;2023-04-28T04:55:14;101391.59;;;3.48;81.14
21781;BME280;52576;53.614;9.894;2023-04-28T04:57:18;101385.38;;;3.54;81.38
21781;BME280;52576;53.614;9.894;2023-04-28T04:59:40;101383.47;;;3.60;80.85
21781;BME280;52576;53.614;9.894;2023-04-28T05:01:49;101383.28;;;3.66;80.52
21781;BME280;52576;53.614;9.894;2023-04-28T05:03:52;101380.53;;;3.72;80.35
21781;BME280;52576;53.614;9.894;2023-04-28T05:05:56;101382.13;;;3.77;80.10
21781;BME280;52576;53.614;9.894;2023-04-28T05:08:09;101369.91;;;3.82;79.87
21781;BME280;52576;53.614;9.894;2023-04-28T05:10:13;101374.91;;;3.88;79.70
21781;BME280;52576;53.614;9.894;2023-04-28T05:12:17;101368.72;;;3.92;79.57
21781;BME280;52576;53.614;9.894;2023-04-28T05:14:21;101377.25;;;3.95;79.19
21781;BME280;52576;53.614;9.894;2023-04-28T05:16:25;101367.66;;;3.99;78.85
21781;BME280;52576;53.614;9.894;2023-04-28T05:18:42;101373.53;;;4.04;78.84
21781;BME280;52576;53.614;9.894;2023-04-28T05:20:45;101379.44;;;4.09;78.45
21781;BME280;52576;53.614;9.894;2023-04-28T05:22:51;101374.13;;;4.14;78.32
21781;BME280;52576;53.614;9.894;2023-04-28T05:24:55;101376.56;;;4.18;77.94
21781;BME280;52576;53.614;9.894;2023-04-28T05:27:00;101367.78;;;4.22;77.66
21781;BME280;52576;53.614;9.894;2023-04-28T05:29:03;101370.19;;;4.28;77.54
21781;BME280;52576;53.614;9.894;2023-04-28T05:31:07;101361.34;;;4.35;77.22
21781;BME280;52576;53.614;9.894;2023-04-28T05:33:10;101359.44;;;4.40;77.07
21781;BME280;52576;53.614;9.894;2023-04-28T05:35:17;101354.84;;;4.49;76.74
21781;BME280;52576;53.614;9.894;2023-04-28T05:37:21;101358.94;;;4.56;76.33
21781;BME280;52576;53.614;9.894;2023-04-28T05:39:25;101353.56;;;4.62;76.08
21781;BME280;52576;53.614;9.894;2023-04-28T05:41:31;101349.78;;;4.70;75.84
21781;BME280;52576;53.614;9.894;2023-04-28T05:43:34;101351.28;;;4.77;75.37
21781;BME280;52576;53.614;9.894;2023-04-28T05:45:38;101338.03;;;4.85;75.25
21781;BME280;52576;53.614;9.894;2023-04-28T05:47:42;101345.50;;;4.94;75.05
21781;BME280;52576;53.614;9.894;2023-04-28T05:49:45;101340.84;;;5.04;74.70
21781;BME280;52576;53.614;9.894;2023-04-28T05:51:50;101336.28;;;5.10;74.11
21781;BME280;52576;53.614;9.894;2023-04-28T05:53:54;101345.44;;;5.21;73.53
21781;BME280;52576;53.614;9.894;2023-04-28T05:55:58;101339.97;;;5.28;73.21
21781;BME280;52576;53.614;9.894;2023-04-28T05:58:01;101337.13;;;5.36;72.68
21781;BME280;52576;53.614;9.894;2023-04-28T06:00:05;101332.50;;;5.44;72.34
21781;BME280;52576;53.614;9.894;2023-04-28T06:02:13;101331.22;;;5.54;71.80
21781;BME280;52576;53.614;9.894;2023-04-28T06:04:18;101324.00;;;5.62;71.40
21781;BME280;52576;53.614;9.894;2023-04-28T06:06:23;101328.88;;;5.71;70.96
21781;BME280;52576;53.614;9.894;2023-04-28T06:08:29;101318.94;;;5.81;70.41
21781;BME280;52576;53.614;9.894;2023-04-28T06:10:32;101324.69;;;5.91;70.36
21781;BME280;52576;53.614;9.894;2023-04-28T06:12:37;101315.59;;;6.01;70.16
21781;BME280;52576;53.614;9.894;2023-04-28T06:14:40;101317.84;;;6.10;69.67
21781;BME280;52576;53.614;9.894;2023-04-28T06:16:44;101320.09;;;6.19;69.07
21781;BME280;52576;53.614;9.894;2023-04-28T06:18:48;101318.78;;;6.29;68.86
21781;BME280;52576;53.614;9.894;2023-04-28T06:20:52;101321.03;;;6.38;68.38
21781;BME280;52576;53.614;9.894;2023-04-28T06:22:57;101313.72;;;6.48;67.73
21781;BME280;52576;53.614;9.894;2023-04-28T06:25:02;101320.28;;;6.57;67.34
21781;BME280;52576;53.614;9.894;2023-04-28T06:27:13;101317.25;;;6.67;66.19
21781;BME280;52576;53.614;9.894;2023-04-28T06:29:17;101321.19;;;6.76;65.74
21781;BME280;52576;53.614;9.894;2023-04-28T06:31:21;101315.59;;;6.85;65.41
21781;BME280;52576;53.614;9.894;2023-04-28T06:33:27;101323.81;;;6.96;65.03
21781;BME280;52576;53.614;9.894;2023-04-28T06:35:31;101320.72;;;7.07;64.81
21781;BME280;52576;53.614;9.894;2023-04-28T06:37:36;101315.13;;;7.16;64.47
21781;BME280;52576;53.614;9.894;2023-04-28T06:39:40;101306.84;;;7.27;63.96
21781;BME280;52576;53.614;9.894;2023-04-28T06:41:44;101308.94;;;7.37;63.16
21781;BME280;52576;53.614;9.894;2023-04-28T06:43:49;101309.41;;;7.47;62.98
21781;BME280;52576;53.614;9.894;2023-04-28T06:45:58;101303.75;;;7.56;62.30
21781;BME280;52576;53.614;9.894;2023-04-28T06:48:02;101303.19;;;7.68;61.66
21781;BME280;52576;53.614;9.894;2023-04-28T06:50:06;101307.06;;;7.78;61.20
21781;BME280;52576;53.614;9.894;2023-04-28T06:52:10;101306.63;;;7.88;60.74
21781;BME280;52576;53.614;9.894;2023-04-28T06:54:15;101305.44;;;7.95;60.18
21781;BME280;52576;53.614;9.894;2023-04-28T06:56:19;101305.16;;;8.01;59.53
21781;BME280;52576;53.614;9.894;2023-04-28T06:58:24;101303.00;;;8.09;59.67
21781;BME280;52576;53.614;9.894;2023-04-28T07:00:28;101299.16;;;8.16;59.31
21781;BME280;52576;53.614;9.894;2023-04-28T07:02:31;101303.97;;;8.25;58.68
21781;BME280;52576;53.614;9.894;2023-04-28T07:04:35;101300.13;;;8.32;58.11
21781;BME280;52576;53.614;9.894;2023-04-28T07:06:38;101304.06;;;8.41;57.72
21781;BME280;52576;53.614;9.894;2023-04-28T07:08:42;101295.88;;;8.48;57.24
21781;BME280;52576;53.614;9.894;2023-04-28T07:10:46;101286.72;;;8.57;56.77
21781;BME280;52576;53.614;9.894;2023-04-28T07:12:50;101289.88;;;8.64;56.60
21781;BME280;52576;53.614;9.894;2023-04-28T07:14:55;101279.09;;;8.70;56.07
21781;BME280;52576;53.614;9.894;2023-04-28T07:16:58;101285.72;;;8.77;55.84
21781;BME280;52576;53.614;9.894;2023-04-28T07:19:02;101278.50;;;8.82;55.54
21781;BME280;52576;53.614;9.894;2023-04-28T07:21:05;101279.84;;;8.89;55.06
21781;BME280;52576;53.614;9.894;2023-04-28T07:23:10;101277.69;;;8.97;54.59
21781;BME280;52576;53.614;9.894;2023-04-28T07:25:13;101272.00;;;9.06;54.24
21781;BME280;52576;53.614;9.894;2023-04-28T07:27:17;101273.16;;;9.16;53.65
21781;BME280;52576;53.614;9.894;2023-04-28T07:29:20;101264.09;;;9.24;53.68
21781;BME280;52576;53.614;9.894;2023-04-28T07:31:25;101268.63;;;9.36;53.70
21781;BME280;52576;53.614;9.894;2023-04-28T07:33:30;101274.91;;;9.49;53.17
21781;BME280;52576;53.614;9.894;2023-04-28T07:35:33;101262.09;;;9.60;52.91
21781;BME280;52576;53.614;9.894;2023-04-28T07:37:36;101257.88;;;9.73;52.21
21781;BME280;52576;53.614;9.894;2023-04-28T07:39:40;101259.06;;;9.83;51.29
21781;BME280;52576;53.614;9.894;2023-04-28T07:41:43;101256.81;;;9.92;50.98
21781;BME280;52576;53.614;9.894;2023-04-28T07:43:47;101261.56;;;10.01;50.79
21781;BME280;52576;53.614;9.894;2023-04-28T07:45:52;101260.19;;;10.09;50.28
21781;BME280;52576;53.614;9.894;2023-04-28T07:47:57;101258.06;;;10.16;50.37
21781;BME280;52576;53.614;9.894;2023-04-28T07:50:00;101261.88;;;10.26;50.03
21781;BME280;52576;53.614;9.894;2023-04-28T07:52:06;101267.44;;;10.36;49.95
21781;BME280;52576;53.614;9.894;2023-04-28T07:54:09;101257.41;;;10.42;49.68
21781;BME280;52576;53.614;9.894;2023-04-28T07:56:12;101257.91;;;10.49;49.36
21781;BME280;52576;53.614;9.894;2023-04-28T07:58:17;101258.22;;;10.59;49.29
21781;BME280;52576;53.614;9.894;2023-04-28T08:00:20;101254.09;;;10.69;48.33
21781;BME280;52576;53.614;9.894;2023-04-28T08:02:24;101253.56;;;10.78;48.06
21781;BME280;52576;53.614;9.894;2023-04-28T08:04:29;101254.91;;;10.85;47.97
21781;BME280;52576;53.614;9.894;2023-04-28T08:06:35;101250.22;;;10.90;47.55
21781;BME280;52576;53.614;9.894;2023-04-28T08:08:39;101249.84;;;10.96;47.55
21781;BME280;52576;53.614;9.894;2023-04-28T08:10:42;101248.72;;;11.00;47.38
21781;BME280;52576;53.614;9.894;2023-04-28T08:12:46;101253.59;;;11.06;47.15
21781;BME280;52576;53.614;9.894;2023-04-28T08:14:49;101243.47;;;11.14;47.07
21781;BME280;52576;53.614;9.894;2023-04-28T08:16:53;101244.56;;;11.25;47.16
21781;BME280;52576;53.614;9.894;2023-04-28T08:18:57;101237.81;;;11.35;46.53
21781;BME280;52576;53.614;9.894;2023-04-28T08:21:03;101238.19;;;11.43;46.24
21781;BME280;52576;53.614;9.894;2023-04-28T08:23:06;101237.78;;;11.49;46.09
21781;BME280;52576;53.614;9.894;2023-04-28T08:25:10;101231.31;;;11.54;45.59
21781;BME280;52576;53.614;9.894;2023-04-28T08:27:14;101233.56;;;11.61;45.86
21781;BME280;52576;53.614;9.894;2023-04-28T08:29:17;101232.25;;;11.68;44.86
21781;BME280;52576;53.614;9.894;2023-04-28T08:31:20;101231.91;;;11.72;45.21
21781;BME280;52576;53.614;9.894;2023-04-28T08:33:24;101235.13;;;11.77;44.85
21781;BME280;52576;53.614;9.894;2023-04-28T08:35:28;101234.00;;;11.81;44.50
21781;BME280;52576;53.614;9.894;2023-04-28T08:37:33;101225.91;;;11.84;44.32
21781;BME280;52576;53.614;9.894;2023-04-28T08:39:37;101229.09;;;11.89;44.07
21781;BME280;52576;53.614;9.894;2023-04-28T08:41:41;101230.34;;;11.97;44.43
21781;BME280;52576;53.614;9.894;2023-04-28T08:43:44;101224.50;;;12.06;44.23
21781;BME280;52576;53.614;9.894;2023-04-28T08:45:47;101225.81;;;12.13;43.66
21781;BME280;52576;53.614;9.894;2023-04-28T08:47:53;101225.41;;;12.19;43.65
21781;BME280;52576;53.614;9.894;2023-04-28T08:50:02;101224.97;;;12.25;43.67
21781;BME280;52576;53.614;9.894;2023-04-28T08:52:11;101220.34;;;12.29;43.46
21781;BME280;52576;53.614;9.894;2023-04-28T08:54:17;101213.84;;;12.34;43.56
21781;BME280;52576;53.614;9.894;2023-04-28T08:56:31;101216.06;;;12.40;43.05
21781;BME280;52576;53.614;9.894;2023-04-28T08:58:35;101211.34;;;12.45;43.14
21781;BME280;52576;53.614;9.894;2023-04-28T09:00:39;101205.88;;;12.48;42.94
21781;BME280;52576;53.614;9.894;2023-04-28T09:02:42;101210.06;;;12.51;42.77
21781;BME280;52576;53.614;9.894;2023-04-28T09:04:46;101205.66;;;12.51;43.11
21781;BME280;52576;53.614;9.894;2023-04-28T09:06:50;101209.03;;;12.53;43.32
21781;BME280;52576;53.614;9.894;2023-04-28T09:08:53;101200.00;;;12.57;42.99
21781;BME280;52576;53.614;9.894;2023-04-28T09:11:15;101203.34;;;12.60;42.73
21781;BME280;52576;53.614;9.894;2023-04-28T09:13:24;101199.78;;;12.61;42.95
21781;BME280;52576;53.614;9.894;2023-04-28T09:15:28;101192.63;;;12.63;42.95
21781;BME280;52576;53.614;9.894;2023-04-28T09:17:46;101203.78;;;12.66;42.66
21781;BME280;52576;53.614;9.894;2023-04-28T09:19:50;101193.16;;;12.68;42.56
21781;BME280;52576;53.614;9.894;2023-04-28T09:21:55;101188.66;;;12.70;41.95
21781;BME280;52576;53.614;9.894;2023-04-28T09:23:59;101180.75;;;12.70;42.01
21781;BME280;52576;53.614;9.894;2023-04-28T09:26:04;101177.19;;;12.71;41.79
21781;BME280;52576;53.614;9.894;2023-04-28T09:28:20;101178.88;;;12.72;41.87
21781;BME280;52576;53.614;9.894;2023-04-28T09:30:38;101179.56;;;12.74;42.40
21781;BME280;52576;53.614;9.894;2023-04-28T09:32:42;101177.47;;;12.79;41.94
21781;BME280;52576;53.614;9.894;2023-04-28T09:34:47;101172.53;;;12.87;42.37
21781;BME280;52576;53.614;9.894;2023-04-28T09:36:51;101175.34;;;12.97;42.46
21781;BME280;52576;53.614;9.894;2023-04-28T09:38:56;101173.84;;;13.05;42.28
21781;BME280;52576;53.614;9.894;2023-04-28T09:41:01;101166.25;;;13.13;42.78
21781;BME280;52576;53.614;9.894;2023-04-28T09:43:23;101168.88;;;13.26;42.70
21781;BME280;52576;53.614;9.894;2023-04-28T09:45:38;101176.63;;;13.40;42.47
21781;BME280;52576;53.614;9.894;2023-04-28T09:47:44;101170.59;;;13.51;42.23
21781;BME280;52576;53.614;9.894;2023-04-28T09:49:56;101166.34;;;13.61;42.35
21781;BME280;52576;53.614;9.894;2023-04-28T09:52:11;101174.06;;;13.75;42.36
21781;BME280;52576;53.614;9.894;2023-04-28T09:54:15;101166.22;;;13.86;42.06
21781;BME280;52576;53.614;9.894;2023-04-28T09:56:20;101159.53;;;13.93;41.44
21781;BME280;52576;53.614;9.894;2023-04-28T09:58:26;101163.50;;;13.99;41.51
21781;BME280;52576;53.614;9.894;2023-04-28T10:00:32;101154.53;;;14.02;41.13
21781;BME280;52576;53.614;9.894;2023-04-28T10:02:37;101150.47;;;14.09;41.16
21781;BME280;52576;53.614;9.894;2023-04-28T10:04:46;101143.53;;;14.19;41.46
21781;BME280;52576;53.614;9.894;2023-04-28T10:06:50;101149.19;;;14.25;41.36
21781;BME280;52576;53.614;9.894;2023-04-28T10:08:54;101153.25;;;14.30;41.35
21781;BME280;52576;53.614;9.894;2023-04-28T10:11:00;101141.63;;;14.32;41.39
21781;BME280;52576;53.614;9.894;2023-04-28T10:13:04;101138.06;;;14.33;41.12
21781;BME280;52576;53.614;9.894;2023-04-28T10:15:11;101135.53;;;14.32;40.69
21781;BME280;52576;53.614;9.894;2023-04-28T10:17:16;101133.00;;;14.30;40.87
21781;BME280;52576;53.614;9.894;2023-04-28T10:19:19;101127.50;;;14.33;40.84
21781;BME280;52576;53.614;9.894;2023-04-28T10:21:23;101116.94;;;14.33;41.26
21781;BME280;52576;53.614;9.894;2023-04-28T10:24:07;101123.69;;;14.37;40.65
21781;BME280;52576;53.614;9.894;2023-04-28T10:26:13;101117.56;;;14.37;40.21
21781;BME280;52576;53.614;9.894;2023-04-28T10:28:20;101116.94;;;14.33;40.66
21781;BME280;52576;53.614;9.894;2023-04-28T10:30:29;101119.97;;;14.29;40.97
21781;BME280;52576;53.614;9.894;2023-04-28T10:32:34;101114.09;;;14.25;40.83
21781;BME280;52576;53.614;9.894;2023-04-28T10:34:40;101116.00;;;14.23;40.83
21781;BME280;52576;53.614;9.894;2023-04-28T10:36:48;101105.69;;;14.20;41.15
21781;BME280;52576;53.614;9.894;2023-04-28T10:39:08;101109.28;;;14.19;40.65
21781;BME280;52576;53.614;9.894;2023-04-28T10:41:32;101105.91;;;14.17;40.47
21781;BME280;52576;53.614;9.894;2023-04-28T10:43:38;101093.69;;;14.16;40.96
21781;BME280;52576;53.614;9.894;2023-04-28T10:46:02;101102.31;;;14.18;41.42
21781;BME280;52576;53.614;9.894;2023-04-28T10:48:07;101089.63;;;14.23;41.68
21781;BME280;52576;53.614;9.894;2023-04-28T10:50:10;101090.81;;;14.30;41.87
21781;BME280;52576;53.614;9.894;2023-04-28T10:52:47;101092.88;;;14.38;41.35
21781;BME280;52576;53.614;9.894;2023-04-28T10:57:27;101103.13;;;14.53;41.18
21781;BME280;52576;53.614;9.894;2023-04-28T10:59:31;101105.38;;;14.58;41.04
21781;BME280;52576;53.614;9.894;2023-04-28T11:01:36;101100.69;;;14.62;40.86
21781;BME280;52576;53.614;9.894;2023-04-28T11:03:48;101089.66;;;14.68;40.97
21781;BME280;52576;53.614;9.894;2023-04-28T11:06:17;101090.63;;;14.78;40.82